createdAt,value
2022-12-09T00:02:10.751Z,42.80
2022-12-09T00:04:39.328Z,42.97
2022-12-09T00:07:08.151Z,43.33
2022-12-09T00:09:39.544Z,44.25
2022-12-09T00:12:07.866Z,41.80
2022-12-09T00:14:36.174Z,41.25
2022-12-09T00:17:04.743Z,42.38
2022-12-09T00:19:34.490Z,41.17
2022-12-09T00:22:02.653Z,42.05
2022-12-09T00:24:30.827Z,40.70
2022-12-09T00:26:59.159Z,38.92
2022-12-09T00:29:27.342Z,37.33
2022-12-09T00:31:55.634Z,40.67
2022-12-09T00:34:24.217Z,37.63
2022-12-09T00:36:52.465Z,38.60
2022-12-09T00:39:20.941Z,37.20
2022-12-09T00:41:50.233Z,38.70
2022-12-09T00:44:18.769Z,36.65
2022-12-09T00:46:47.399Z,37.22
2022-12-09T00:49:15.787Z,40.40
2022-12-09T00:51:44.071Z,38.85
2022-12-09T00:54:13.121Z,37.67
2022-12-09T00:56:41.444Z,37.90
2022-12-09T00:59:09.944Z,37.95
2022-12-09T01:01:38.315Z,36.72
2022-12-09T01:04:09.829Z,36.97
2022-12-09T01:06:38.460Z,38.17
2022-12-09T01:09:07.394Z,38.45
2022-12-09T01:11:35.890Z,37.38
2022-12-09T01:14:04.701Z,36.72
2022-12-09T01:16:35.080Z,39.05
2022-12-09T01:19:06.969Z,36.95
2022-12-09T01:21:36.102Z,38.20
2022-12-09T01:24:09.542Z,37.53
2022-12-09T01:26:38.642Z,37.00
2022-12-09T01:29:07.337Z,37.85
2022-12-09T01:31:36.751Z,36.78
2022-12-09T01:34:05.742Z,37.70
2022-12-09T01:36:34.284Z,37.70
2022-12-09T01:39:05.660Z,35.60
2022-12-09T01:41:35.237Z,36.67
2022-12-09T01:44:11.120Z,37.13
2022-12-09T01:46:40.101Z,37.45
2022-12-09T01:49:11.578Z,36.88
2022-12-09T01:51:41.759Z,39.58
2022-12-09T01:54:10.467Z,38.30
2022-12-09T01:56:41.475Z,36.65
2022-12-09T01:59:14.587Z,36.78
2022-12-09T02:01:45.934Z,35.05
2022-12-09T02:04:14.394Z,34.90
2022-12-09T02:06:42.971Z,36.25
2022-12-09T02:09:13.054Z,34.75
2022-12-09T02:12:10.154Z,34.63
2022-12-09T02:14:52.887Z,34.13
2022-12-09T02:17:27.221Z,33.93
2022-12-09T02:20:13.454Z,27.02
2022-12-09T02:23:05.637Z,26.15
2022-12-09T02:25:53.521Z,25.63
2022-12-09T02:28:39.685Z,26.25
2022-12-09T02:31:37.990Z,27.42
2022-12-09T02:34:34.734Z,26.95
2022-12-09T02:37:27.366Z,27.42
2022-12-09T02:40:05.454Z,27.00
2022-12-09T02:42:39.339Z,28.88
2022-12-09T02:45:10.140Z,27.92
2022-12-09T02:47:53.417Z,28.75
2022-12-09T02:50:28.458Z,29.85
2022-12-09T02:53:01.535Z,28.02
2022-12-09T02:55:32.944Z,28.95
2022-12-09T02:58:02.463Z,29.77
2022-12-09T03:00:34.174Z,29.47
2022-12-09T03:03:05.495Z,29.00
2022-12-09T03:05:36.801Z,29.08
2022-12-09T03:08:34.091Z,30.98
2022-12-09T03:11:17.280Z,31.80
2022-12-09T03:13:51.218Z,31.13
2022-12-09T03:16:25.587Z,31.27
2022-12-09T03:19:06.746Z,32.15
2022-12-09T03:21:38.840Z,32.10
2022-12-09T03:24:10.946Z,32.22
2022-12-09T03:26:40.583Z,32.10
2022-12-09T03:29:17.123Z,31.10
2022-12-09T03:31:47.113Z,32.80
2022-12-09T03:34:20.019Z,32.80
2022-12-09T03:36:52.100Z,30.30
2022-12-09T03:39:26.705Z,29.75
2022-12-09T03:41:58.361Z,29.95
2022-12-09T03:44:51.769Z,23.95
2022-12-09T03:47:20.645Z,20.50
2022-12-09T03:49:49.417Z,19.75
2022-12-09T03:52:40.254Z,19.73
2022-12-09T03:55:26.420Z,18.63
2022-12-09T03:57:58.315Z,18.52
2022-12-09T04:00:27.027Z,17.67
2022-12-09T04:02:55.685Z,18.27
2022-12-09T04:05:24.478Z,16.88
2022-12-09T04:07:53.208Z,18.10
2022-12-09T04:10:21.776Z,17.35
2022-12-09T04:12:50.085Z,16.38
2022-12-09T04:15:18.324Z,16.20
2022-12-09T04:17:46.931Z,17.02
2022-12-09T04:20:15.766Z,17.10
2022-12-09T04:22:43.941Z,17.63
2022-12-09T04:25:13.133Z,18.88
2022-12-09T04:27:41.680Z,18.65
2022-12-09T04:30:12.153Z,19.30
2022-12-09T04:32:41.194Z,17.75
2022-12-09T04:35:09.561Z,19.08
2022-12-09T04:37:37.981Z,17.95
2022-12-09T04:40:07.770Z,18.45
2022-12-09T04:42:36.677Z,18.73
2022-12-09T04:45:05.606Z,18.38
2022-12-09T04:47:35.120Z,19.73
2022-12-09T04:50:04.122Z,20.80
2022-12-09T04:52:32.749Z,20.33
2022-12-09T04:55:03.245Z,21.13
2022-12-09T04:57:31.470Z,20.83
2022-12-09T04:59:59.823Z,21.13
2022-12-09T05:02:29.482Z,21.60
2022-12-09T05:05:03.032Z,20.95
2022-12-09T05:07:57.073Z,21.90
2022-12-09T05:10:25.976Z,21.45
2022-12-09T05:12:54.412Z,22.85
2022-12-09T05:15:23.959Z,21.58
2022-12-09T05:17:52.607Z,23.45
2022-12-09T05:20:22.028Z,22.02
2022-12-09T05:22:52.558Z,24.35
2022-12-09T05:25:20.953Z,21.60
2022-12-09T05:27:49.788Z,20.75
2022-12-09T05:30:19.635Z,20.98
2022-12-09T05:32:48.159Z,23.08
2022-12-09T05:35:16.578Z,22.80
2022-12-09T05:37:45.958Z,22.05
2022-12-09T05:40:14.591Z,23.08
2022-12-09T05:42:43.529Z,23.30
2022-12-09T05:45:12.502Z,21.80
2022-12-09T05:47:41.749Z,22.20
2022-12-09T05:50:11.458Z,22.80
2022-12-09T05:52:40.888Z,21.23
2022-12-09T05:55:10.392Z,22.23
2022-12-09T05:57:38.689Z,22.48
2022-12-09T06:00:08.329Z,22.13
2022-12-09T06:02:45.664Z,21.15
2022-12-09T06:05:18.113Z,20.30
2022-12-09T06:07:46.561Z,20.40
2022-12-09T06:10:16.443Z,21.20
2022-12-09T06:12:45.426Z,21.02
2022-12-09T06:15:20.295Z,22.50
2022-12-09T06:17:50.363Z,20.02
2022-12-09T06:20:19.438Z,20.15
2022-12-09T06:22:47.966Z,20.85
2022-12-09T06:25:19.255Z,20.52
2022-12-09T06:27:47.481Z,20.13
2022-12-09T06:30:16.182Z,22.38
2022-12-09T06:32:44.558Z,20.88
2022-12-09T06:35:13.650Z,21.98
2022-12-09T06:37:42.457Z,24.83
2022-12-09T06:40:11.817Z,26.25
2022-12-09T06:42:40.174Z,25.75
2022-12-09T06:45:09.480Z,25.27
2022-12-09T06:47:38.129Z,25.40
2022-12-09T06:50:09.963Z,26.83
2022-12-09T06:52:39.444Z,26.33
2022-12-09T06:55:09.217Z,24.55
2022-12-09T06:57:37.725Z,26.05
2022-12-09T07:00:14.096Z,27.92
2022-12-09T07:02:42.731Z,27.20
2022-12-09T07:05:11.898Z,26.83
2022-12-09T07:07:40.890Z,27.33
2022-12-09T07:10:11.297Z,26.58
2022-12-09T07:12:39.576Z,27.60
2022-12-09T07:15:08.902Z,28.13
2022-12-09T07:17:37.673Z,29.80
2022-12-09T07:20:07.777Z,27.98
2022-12-09T07:22:37.132Z,27.23
2022-12-09T07:25:06.289Z,27.13
2022-12-09T07:27:36.212Z,28.05
2022-12-09T07:30:05.519Z,26.83
2022-12-09T07:32:33.844Z,28.88
2022-12-09T07:35:02.276Z,26.65
2022-12-09T07:37:30.553Z,27.52
2022-12-09T07:39:58.968Z,26.52
2022-12-09T07:42:27.603Z,27.58
2022-12-09T07:44:56.428Z,25.88
2022-12-09T07:47:24.838Z,26.83
2022-12-09T07:49:53.406Z,30.55
2022-12-09T07:52:22.250Z,28.50
2022-12-09T07:54:50.526Z,25.70
2022-12-09T07:57:18.994Z,24.83
2022-12-09T07:59:47.486Z,24.85
2022-12-09T08:02:15.920Z,22.83
2022-12-09T08:04:44.320Z,24.67
2022-12-09T08:07:13.870Z,23.02
2022-12-09T08:09:45.619Z,25.65
2022-12-09T08:12:14.436Z,24.52
2022-12-09T08:14:42.847Z,24.17
2022-12-09T08:17:11.288Z,24.92
2022-12-09T08:19:39.722Z,22.92
2022-12-09T08:22:08.755Z,20.80
2022-12-09T08:24:37.561Z,19.95
2022-12-09T08:27:06.055Z,21.35
2022-12-09T08:29:36.596Z,21.17
2022-12-09T08:32:05.484Z,20.17
2022-12-09T08:34:34.173Z,21.90
2022-12-09T08:37:03.113Z,22.98
2022-12-09T08:39:31.734Z,23.02
2022-12-09T08:42:00.224Z,21.98
2022-12-09T08:44:28.626Z,26.73
2022-12-09T08:46:57.079Z,26.70
2022-12-09T08:49:25.888Z,26.88
2022-12-09T08:51:54.691Z,26.73
2022-12-09T08:54:23.400Z,25.90
2022-12-09T08:56:55.148Z,22.65
2022-12-09T08:59:24.712Z,21.75
2022-12-09T09:01:54.501Z,20.13
2022-12-09T09:04:25.213Z,18.02
2022-12-09T09:06:53.934Z,15.88
2022-12-09T09:09:23.380Z,16.63
2022-12-09T09:11:52.068Z,16.10
2022-12-09T09:14:20.994Z,14.95
2022-12-09T09:16:49.961Z,14.65
2022-12-09T09:19:25.683Z,14.20
2022-12-09T09:21:56.245Z,13.52
2022-12-09T09:24:25.982Z,13.32
2022-12-09T09:26:54.904Z,15.07
2022-12-09T09:29:24.631Z,13.60
2022-12-09T09:31:57.389Z,14.45
2022-12-09T09:34:27.420Z,14.05
2022-12-09T09:36:56.880Z,14.52
2022-12-09T09:39:25.705Z,14.20
2022-12-09T09:42:08.059Z,12.68
2022-12-09T09:47:36.222Z,13.50
2022-12-09T09:50:22.496Z,11.80
2022-12-09T09:52:55.325Z,13.88
2022-12-09T09:55:50.368Z,11.77
2022-12-09T09:58:37.490Z,12.13
2022-12-09T10:01:07.504Z,18.58
2022-12-09T10:03:52.341Z,15.63
2022-12-09T10:06:37.431Z,12.20
2022-12-09T10:09:24.906Z,11.10
2022-12-09T10:12:05.747Z,11.57
2022-12-09T10:14:50.566Z,11.90
2022-12-09T10:17:33.078Z,11.10
2022-12-09T10:20:15.219Z,10.05
2022-12-09T10:22:52.614Z,10.85
2022-12-09T10:25:24.029Z,10.98
2022-12-09T10:28:22.291Z,11.00
2022-12-09T10:30:52.633Z,9.68
2022-12-09T10:33:35.259Z,10.27
2022-12-09T10:36:05.177Z,11.60
2022-12-09T10:38:40.514Z,11.60
2022-12-09T10:41:38.331Z,10.57
2022-12-09T10:44:27.590Z,10.82
2022-12-09T10:47:20.828Z,12.10
2022-12-09T10:49:52.548Z,12.93
2022-12-09T10:52:28.413Z,13.52
2022-12-09T10:54:57.482Z,14.13
2022-12-09T10:57:32.001Z,13.18
2022-12-09T11:00:24.664Z,13.90
2022-12-09T11:02:59.815Z,14.65
2022-12-09T11:05:33.938Z,17.50
2022-12-09T11:08:03.051Z,17.77
2022-12-09T11:10:32.735Z,19.33
2022-12-09T11:13:07.154Z,23.50
2022-12-09T11:15:43.855Z,17.17
2022-12-09T11:18:20.446Z,14.00
2022-12-09T11:21:07.229Z,14.52
2022-12-09T11:23:36.798Z,14.73
2022-12-09T11:26:23.245Z,15.50
2022-12-09T11:29:14.931Z,12.90
2022-12-09T11:31:44.558Z,15.88
2022-12-09T11:34:23.246Z,8.40
2022-12-09T11:36:54.454Z,9.88
2022-12-09T11:39:32.894Z,11.45
2022-12-09T11:42:18.898Z,13.63
2022-12-09T11:45:04.337Z,13.60
2022-12-09T11:48:13.574Z,12.18
2022-12-09T11:50:31.820Z,18.60
2022-12-09T11:53:11.244Z,18.17
2022-12-09T11:56:14.385Z,15.63
2022-12-09T11:58:48.482Z,11.30
2022-12-09T12:01:31.913Z,10.57
2022-12-09T12:04:08.833Z,10.38
2022-12-09T12:06:57.271Z,10.30
2022-12-09T12:09:42.090Z,10.60
2022-12-09T12:12:39.604Z,11.55
2022-12-09T12:15:19.985Z,11.27
2022-12-09T12:17:55.061Z,10.70
2022-12-09T12:20:43.124Z,10.60
2022-12-09T12:23:29.205Z,11.27
2022-12-09T12:26:00.209Z,12.68
2022-12-09T12:28:31.504Z,14.75
2022-12-09T12:31:19.700Z,42.88
2022-12-09T12:34:16.219Z,18.23
2022-12-09T12:37:33.743Z,19.02
2022-12-09T12:40:25.022Z,15.15
2022-12-09T12:43:22.394Z,14.98
2022-12-09T12:46:17.712Z,10.80
2022-12-09T12:48:55.373Z,12.10
2022-12-09T12:51:45.015Z,14.80
2022-12-09T12:54:26.708Z,13.77
2022-12-09T12:57:12.893Z,8.30
2022-12-09T13:00:01.273Z,7.32
2022-12-09T13:02:59.294Z,7.65
2022-12-09T13:05:35.433Z,8.30
2022-12-09T13:08:13.576Z,7.47
2022-12-09T13:10:45.676Z,7.50
2022-12-09T13:13:38.563Z,7.90
2022-12-09T13:16:23.289Z,7.57
2022-12-09T13:18:52.928Z,6.88
2022-12-09T13:21:22.067Z,7.68
2022-12-09T13:23:56.272Z,7.95
2022-12-09T13:26:54.569Z,7.78
2022-12-09T13:29:22.765Z,7.80
2022-12-09T13:32:17.312Z,7.25
2022-12-09T13:34:54.474Z,7.65
2022-12-09T13:37:32.691Z,9.10
2022-12-09T13:40:01.989Z,8.20
2022-12-09T13:42:51.986Z,7.63
2022-12-09T13:45:32.436Z,9.25
2022-12-09T13:48:16.849Z,17.35
2022-12-09T13:50:59.604Z,9.65
2022-12-09T13:53:35.551Z,10.05
2022-12-09T13:56:19.185Z,10.75
2022-12-09T14:01:51.715Z,8.45
2022-12-09T14:04:34.175Z,8.85
2022-12-09T14:07:13.921Z,8.43
2022-12-09T14:09:42.020Z,9.27
2022-12-09T14:12:14.180Z,12.10
2022-12-09T14:14:53.194Z,10.23
2022-12-09T14:17:21.378Z,9.63
2022-12-09T14:20:08.414Z,11.65
2022-12-09T14:22:39.020Z,12.25
2022-12-09T14:25:25.705Z,9.95
2022-12-09T14:28:12.367Z,12.35
2022-12-09T14:31:04.817Z,9.10
2022-12-09T14:33:46.238Z,9.07
2022-12-09T14:36:14.341Z,9.00
2022-12-09T14:39:22.642Z,9.60
2022-12-09T14:41:59.008Z,9.43
2022-12-09T14:44:51.196Z,8.18
2022-12-09T14:47:33.743Z,8.90
2022-12-09T14:50:18.324Z,10.07
2022-12-09T14:53:01.807Z,9.57
2022-12-09T14:58:01.203Z,9.95
2022-12-09T15:00:36.098Z,10.07
2022-12-09T15:03:44.777Z,9.70
2022-12-09T15:06:17.485Z,10.50
2022-12-09T15:08:46.822Z,11.48
2022-12-09T15:11:16.968Z,11.80
2022-12-09T15:13:48.225Z,11.80
2022-12-09T15:16:21.302Z,11.85
2022-12-09T15:18:51.420Z,12.90
2022-12-09T15:21:30.957Z,12.48
2022-12-09T15:24:00.810Z,12.15
2022-12-09T15:26:33.694Z,13.00
2022-12-09T15:29:05.283Z,12.90
2022-12-09T15:31:34.857Z,13.60
2022-12-09T15:34:15.661Z,15.48
2022-12-09T15:36:54.001Z,14.48
2022-12-09T15:39:29.758Z,13.93
2022-12-09T15:42:07.722Z,12.60
2022-12-09T15:45:08.293Z,14.70
2022-12-09T15:47:47.996Z,12.32
2022-12-09T15:50:21.557Z,11.60
2022-12-09T15:53:08.547Z,10.93
2022-12-09T15:55:50.531Z,10.38
2022-12-09T15:58:24.723Z,10.13
2022-12-09T16:01:12.314Z,9.27
2022-12-09T16:03:40.905Z,9.65
2022-12-09T16:06:10.130Z,8.77
2022-12-09T16:08:44.842Z,8.32
2022-12-09T16:11:13.362Z,7.97
2022-12-09T16:14:00.875Z,9.25
2022-12-09T16:16:42.729Z,7.28
2022-12-09T16:19:27.699Z,8.15
2022-12-09T16:22:00.260Z,7.95
2022-12-09T16:24:50.859Z,8.43
2022-12-09T16:27:30.984Z,7.78
2022-12-09T16:30:10.648Z,7.82
2022-12-09T16:32:53.453Z,7.97
2022-12-09T16:35:28.349Z,8.68
2022-12-09T16:37:56.574Z,8.63
2022-12-09T16:40:25.459Z,8.52
2022-12-09T16:43:16.490Z,8.55
2022-12-09T16:45:45.676Z,7.72
2022-12-09T16:48:14.295Z,6.82
2022-12-09T16:50:43.823Z,5.28
2022-12-09T16:53:26.157Z,5.78
2022-12-09T16:56:00.112Z,6.25
2022-12-09T16:58:33.558Z,5.80
2022-12-09T17:01:04.071Z,5.18
2022-12-09T17:03:45.316Z,5.07
2022-12-09T17:06:18.648Z,5.25
2022-12-09T17:08:47.162Z,5.30
2022-12-09T17:11:16.949Z,5.20
2022-12-09T17:13:45.649Z,5.85
2022-12-09T17:16:13.895Z,7.55
2022-12-09T17:18:42.211Z,6.68
2022-12-09T17:21:13.243Z,7.00
2022-12-09T17:23:42.215Z,6.90
2022-12-09T17:26:13.727Z,7.78
2022-12-09T17:28:43.157Z,8.50
2022-12-09T17:31:21.588Z,7.32
2022-12-09T17:33:50.377Z,7.05
2022-12-09T17:36:19.430Z,7.70
2022-12-09T17:38:47.806Z,8.43
2022-12-09T17:41:20.542Z,8.90
2022-12-09T17:43:48.846Z,8.98
2022-12-09T17:46:18.562Z,9.65
2022-12-09T17:48:47.668Z,8.55
2022-12-09T17:51:20.623Z,8.77
2022-12-09T17:53:50.752Z,8.48
2022-12-09T17:56:23.359Z,10.60
2022-12-09T17:59:02.871Z,10.02
2022-12-09T18:01:34.017Z,10.73
2022-12-09T18:04:08.838Z,9.95
2022-12-09T18:06:39.753Z,9.73
2022-12-09T18:09:10.586Z,8.55
2022-12-09T18:11:39.734Z,8.52
2022-12-09T18:14:09.829Z,7.35
2022-12-09T18:16:38.742Z,7.45
2022-12-09T18:19:12.991Z,8.77
2022-12-09T18:21:42.690Z,7.53
2022-12-09T18:24:12.857Z,8.40
2022-12-09T18:26:42.232Z,7.20
2022-12-09T18:29:12.259Z,7.82
2022-12-09T18:31:42.239Z,8.48
2022-12-09T18:34:10.486Z,8.60
2022-12-09T18:36:41.655Z,10.05
2022-12-09T18:39:09.883Z,8.88
2022-12-09T18:41:38.151Z,8.25
2022-12-09T18:44:07.561Z,8.50
2022-12-09T18:46:38.978Z,8.65
2022-12-09T18:49:16.483Z,8.43
2022-12-09T18:51:46.307Z,8.73
2022-12-09T18:54:34.259Z,8.95
2022-12-09T18:57:03.596Z,8.32
2022-12-09T18:59:32.288Z,8.82
2022-12-09T19:02:00.606Z,8.15
2022-12-09T19:04:29.873Z,7.55
2022-12-09T19:07:00.171Z,7.15
2022-12-09T19:09:33.382Z,7.75
2022-12-09T19:12:37.905Z,7.30
2022-12-09T19:14:52.612Z,6.82
2022-12-09T19:17:21.771Z,8.07
2022-12-09T19:19:50.317Z,7.15
2022-12-09T19:22:18.501Z,7.30
2022-12-09T19:24:46.674Z,8.30
2022-12-09T19:27:14.862Z,8.30
2022-12-09T19:29:43.203Z,9.50
2022-12-09T19:32:36.510Z,9.20
2022-12-09T19:34:59.669Z,8.05
2022-12-09T19:37:27.903Z,7.43
2022-12-09T19:39:56.054Z,8.35
2022-12-09T19:42:24.345Z,9.05
2022-12-09T19:45:01.429Z,9.02
2022-12-09T19:47:30.849Z,9.23
2022-12-09T19:49:59.044Z,8.25
2022-12-09T19:52:27.393Z,9.25
2022-12-09T19:54:55.627Z,8.82
2022-12-09T19:57:23.922Z,8.07
2022-12-09T19:59:52.061Z,9.52
2022-12-09T20:02:20.479Z,9.07
2022-12-09T20:04:50.431Z,9.48
2022-12-09T20:07:19.886Z,9.25
2022-12-09T20:09:48.526Z,10.48
2022-12-09T20:12:16.797Z,10.48
2022-12-09T20:14:45.040Z,10.65
2022-12-09T20:17:13.294Z,11.13
2022-12-09T20:19:41.633Z,10.00
2022-12-09T20:22:09.999Z,8.77
2022-12-09T20:24:38.198Z,8.68
2022-12-09T20:27:06.504Z,8.50
2022-12-09T20:29:37.971Z,7.53
2022-12-09T20:32:08.415Z,9.02
2022-12-09T20:34:36.789Z,8.20
2022-12-09T20:37:05.710Z,8.60
2022-12-09T20:39:34.014Z,8.98
2022-12-09T20:42:02.217Z,8.23
2022-12-09T20:44:32.340Z,10.50
2022-12-09T20:47:00.531Z,8.70
2022-12-09T20:49:29.874Z,8.43
2022-12-09T20:51:58.670Z,9.20
2022-12-09T20:54:29.850Z,10.27
2022-12-09T20:56:58.069Z,8.65
2022-12-09T20:59:26.237Z,9.45
2022-12-09T21:01:55.922Z,8.48
2022-12-09T21:04:24.670Z,8.20
2022-12-09T21:06:52.897Z,8.30
2022-12-09T21:09:22.888Z,8.27
2022-12-09T21:11:51.483Z,9.15
2022-12-09T21:14:20.198Z,8.10
2022-12-09T21:16:50.698Z,9.40
2022-12-09T21:19:27.499Z,9.82
2022-12-09T21:21:55.926Z,10.05
2022-12-09T21:24:24.739Z,11.00
2022-12-09T21:26:53.802Z,10.63
2022-12-09T21:29:26.891Z,11.95
2022-12-09T21:31:58.371Z,10.75
2022-12-09T21:34:27.234Z,9.50
2022-12-09T21:36:55.461Z,9.68
2022-12-09T21:39:23.737Z,10.00
2022-12-09T21:41:52.252Z,9.15
2022-12-09T21:44:22.364Z,10.48
2022-12-09T21:46:50.857Z,10.00
2022-12-09T21:49:19.071Z,10.20
2022-12-09T21:51:47.333Z,10.50
2022-12-09T21:54:15.688Z,9.60
2022-12-09T21:56:44.018Z,10.32
2022-12-09T21:59:13.386Z,9.40
2022-12-09T22:01:42.727Z,9.43
2022-12-09T22:04:13.324Z,10.23
2022-12-09T22:06:43.962Z,9.50
2022-12-09T22:09:12.825Z,10.52
2022-12-09T22:11:41.267Z,10.60
2022-12-09T22:14:10.629Z,11.18
2022-12-09T22:16:43.130Z,11.82
2022-12-09T22:19:16.152Z,10.52
2022-12-09T22:21:44.873Z,10.30
2022-12-09T22:24:14.433Z,10.70
2022-12-09T22:26:45.920Z,11.57
2022-12-09T22:29:16.530Z,11.32
2022-12-09T22:31:45.650Z,11.25
2022-12-09T22:34:17.649Z,12.10
2022-12-09T22:36:47.314Z,11.95
2022-12-09T22:39:18.848Z,10.93
2022-12-09T22:41:47.696Z,11.82
2022-12-09T22:44:18.404Z,12.25
2022-12-09T22:46:48.005Z,12.25
2022-12-09T22:49:19.805Z,12.00
2022-12-09T22:51:48.446Z,11.70
2022-12-09T22:54:17.069Z,12.02
2022-12-09T22:56:45.432Z,11.98
2022-12-09T22:59:14.872Z,13.75
2022-12-09T23:01:47.561Z,15.80
2022-12-09T23:04:18.507Z,9.48
2022-12-09T23:06:46.709Z,13.40
2022-12-09T23:09:23.802Z,13.50
2022-12-09T23:11:53.222Z,16.17
2022-12-09T23:14:21.822Z,16.75
2022-12-09T23:16:50.399Z,16.98
2022-12-09T23:19:18.595Z,16.55
2022-12-09T23:21:46.878Z,17.83
2022-12-09T23:24:24.041Z,17.08
2022-12-09T23:26:54.406Z,17.30
2022-12-09T23:29:22.981Z,16.77
2022-12-09T23:31:51.538Z,17.40
2022-12-09T23:34:22.737Z,17.38
2022-12-09T23:36:51.102Z,16.30
2022-12-09T23:39:19.724Z,17.70
2022-12-09T23:41:48.210Z,17.67
2022-12-09T23:44:18.566Z,16.52
2022-12-09T23:46:47.315Z,15.68
2022-12-09T23:49:16.123Z,16.73
2022-12-09T23:51:44.907Z,16.33
2022-12-09T23:54:15.034Z,17.70
2022-12-09T23:56:48.021Z,15.63
2022-12-09T23:59:19.375Z,16.45
